Time;durP1;ratioP1;P1;durP2;ratioP2;P2;SDS_P1;SDS_P2;PMS_P1;PMS_P2;Temp;Humidity;BMP_temperature;BMP_pressure;BME280_temperature;BME280_humidity;BME280_pressure;Samples;Min_cycle;Max_cycle;Signal;HPM_P1;HPM_P2
2021/03/01 00:00:39;;;;;;;13.90;11.17;;;;;;;3.64;86.65;103528.34;5135494;27;20105;-41
2021/03/01 00:03:05;;;;;;;15.93;11.60;;;;;;;3.62;86.57;103520.47;5135651;27;20023;-41
2021/03/01 00:05:30;;;;;;;15.45;11.43;;;;;;;3.54;86.55;103525.53;5135960;27;20027;-41
2021/03/01 00:07:55;;;;;;;13.00;10.88;;;;;;;3.62;86.30;103531.16;5135273;27;20022;-41
2021/03/01 00:10:21;;;;;;;16.47;11.90;;;;;;;3.60;86.25;103525.06;5135227;27;20023;-41
2021/03/01 00:12:46;;;;;;;14.93;10.53;;;;;;;3.62;86.71;103523.13;5135929;27;20019;-42
2021/03/01 00:15:15;;;;;;;15.87;11.47;;;;;;;3.62;86.12;103520.47;5136200;27;20470;-42
2021/03/01 00:17:42;;;;;;;13.02;10.65;;;;;;;3.61;86.54;103524.06;5135014;27;20086;-42
2021/03/01 00:20:09;;;;;;;11.77;10.50;;;;;;;3.63;85.85;103529.34;5135399;27;20058;-42
2021/03/01 00:22:35;;;;;;;16.95;11.68;;;;;;;3.54;86.10;103526.38;5135575;27;20067;-42
2021/03/01 00:25:00;;;;;;;15.70;13.05;;;;;;;3.40;86.77;103529.28;5134999;27;20475;-42
2021/03/01 00:27:26;;;;;;;14.63;11.70;;;;;;;3.35;86.70;103532.31;5134185;27;20371;-42
2021/03/01 00:29:51;;;;;;;15.13;11.93;;;;;;;3.40;86.80;103531.09;5134965;27;20037;-42
2021/03/01 00:32:17;;;;;;;16.07;12.67;;;;;;;3.30;87.34;103534.47;5135465;27;20456;-42
2021/03/01 00:34:42;;;;;;;17.00;14.27;;;;;;;3.21;87.36;103537.84;5135033;27;20455;-42
2021/03/01 00:37:07;;;;;;;21.53;14.40;;;;;;;3.25;87.57;103539.34;5135609;27;20412;-42
2021/03/01 00:39:33;;;;;;;20.70;16.60;;;;;;;3.16;87.81;103544.53;5135606;27;20030;-42
2021/03/01 00:41:58;;;;;;;18.60;14.90;;;;;;;3.14;87.61;103536.63;5134979;27;20416;-42
2021/03/01 00:44:23;;;;;;;24.00;17.63;;;;;;;3.14;88.81;103536.63;5135182;27;20106;-42
2021/03/01 00:46:49;;;;;;;21.13;17.17;;;;;;;3.15;88.48;103548.19;5134962;27;20071;-42
2021/03/01 00:49:14;;;;;;;30.20;19.93;;;;;;;3.04;89.48;103551.66;5134567;27;20375;-42
2021/03/01 00:51:39;;;;;;;24.97;19.23;;;;;;;3.17;90.00;103552.41;5134851;27;20065;-42
2021/03/01 00:54:05;;;;;;;30.53;20.40;;;;;;;3.15;89.48;103543.69;5135271;27;20015;-42
2021/03/01 00:56:30;;;;;;;32.33;22.40;;;;;;;3.04;90.06;103551.66;5135614;27;20022;-42
2021/03/01 00:58:55;;;;;;;33.43;21.67;;;;;;;3.06;90.08;103547.03;5134721;27;20458;-42
2021/03/01 01:01:21;;;;;;;34.07;21.47;;;;;;;3.09;90.13;103552.16;5135073;27;20027;-43
2021/03/01 01:03:46;;;;;;;33.83;21.83;;;;;;;3.10;90.42;103557.38;5134323;27;20107;-42
2021/03/01 01:06:11;;;;;;;34.80;24.10;;;;;;;3.14;90.79;103547.31;5134994;27;20022;-42
2021/03/01 01:08:36;;;;;;;38.97;26.57;;;;;;;3.07;91.20;103546.94;5134416;27;20023;-42
2021/03/01 01:11:02;;;;;;;39.40;25.80;;;;;;;3.09;90.98;103546.81;5135120;27;20019;-42
2021/03/01 01:13:28;;;;;;;43.83;26.75;;;;;;;3.07;90.78;103552.28;5134756;27;20047;-42
2021/03/01 01:15:53;;;;;;;37.17;25.13;;;;;;;3.14;91.19;103547.31;5134707;28;20024;-42
2021/03/01 01:18:19;;;;;;;42.13;25.80;;;;;;;3.18;90.68;103542.59;5134399;28;20023;-42
2021/03/01 01:20:44;;;;;;;40.80;25.27;;;;;;;3.21;90.71;103548.56;5134685;28;20019;-42
2021/03/01 01:23:09;;;;;;;39.27;25.77;;;;;;;3.26;90.63;103551.72;5134447;28;20480;-42
2021/03/01 01:25:35;;;;;;;49.47;29.87;;;;;;;3.17;91.08;103543.56;5133617;27;20069;-42
2021/03/01 01:28:00;;;;;;;50.80;31.23;;;;;;;3.12;91.77;103543.91;5134074;28;20055;-42
2021/03/01 01:30:26;;;;;;;44.40;27.47;;;;;;;3.22;91.81;103544.06;5134872;28;20355;-42
2021/03/01 01:32:53;;;;;;;43.80;27.58;;;;;;;3.24;91.94;103545.66;5134237;28;20027;-42
2021/03/01 01:35:19;;;;;;;41.30;26.23;;;;;;;3.35;91.33;103534.97;5134362;28;20030;-42
2021/03/01 01:37:46;;;;;;;40.40;26.80;;;;;;;3.40;91.27;103542.66;5134186;28;20030;-42
2021/03/01 01:40:15;;;;;;;49.42;32.42;;;;;;;3.28;91.69;103541.78;5134242;28;20444;-42
2021/03/01 01:42:40;;;;;;;44.20;27.85;;;;;;;3.32;91.88;103540.59;5134472;28;20094;-42
2021/03/01 01:45:11;;;;;;;45.83;27.85;;;;;;;3.36;91.66;103543.84;5134214;28;20483;-42
2021/03/01 01:47:37;;;;;;;46.40;28.55;;;;;;;3.38;91.69;103543.75;5133846;27;20026;-42
2021/03/01 01:50:07;;;;;;;54.85;33.22;;;;;;;3.29;92.45;103539.97;5134250;28;20455;-42
2021/03/01 01:52:32;;;;;;;46.40;29.27;;;;;;;3.29;91.89;103545.31;5134337;27;20027;-42
2021/03/01 01:54:58;;;;;;;43.67;28.23;;;;;;;3.29;91.97;103540.81;5134205;28;20019;-42
2021/03/01 01:57:24;;;;;;;46.92;28.88;;;;;;;3.22;92.13;103533.34;5134756;28;20030;-42
2021/03/01 01:59:50;;;;;;;40.05;26.33;;;;;;;3.33;91.68;103536.09;5134140;28;20044;-42
2021/03/01 02:02:16;;;;;;;44.17;28.42;;;;;;;3.36;91.51;103542.03;5134136;28;20016;-42
2021/03/01 02:04:46;;;;;;;41.05;27.15;;;;;;;3.42;91.22;103534.53;5134263;28;20019;-42
2021/03/01 02:07:14;;;;;;;35.72;24.67;;;;;;;3.44;91.18;103537.94;5134117;28;20024;-42
2021/03/01 02:09:42;;;;;;;42.13;28.00;;;;;;;3.38;91.01;103538.41;5134261;28;20417;-42
2021/03/01 02:12:15;;;;;;;36.95;24.92;;;;;;;3.36;90.59;103536.69;5134530;28;20353;-42
2021/03/01 02:14:52;;;;;;;43.22;27.63;;;;;;;3.32;90.84;103534.38;5134493;28;20043;-42
2021/03/01 02:17:18;;;;;;;36.10;23.73;;;;;;;3.36;90.40;103538.50;5134241;27;20023;-42
2021/03/01 02:19:43;;;;;;;33.00;24.63;;;;;;;3.32;90.78;103531.72;5133681;27;20421;-43
2021/03/01 02:22:09;;;;;;;35.77;25.77;;;;;;;3.34;90.49;103525.25;5137927;27;20053;-42
2021/03/01 02:24:43;;;;;;;39.78;26.83;;;;;;;3.33;90.54;103517.38;5137864;27;20034;-42
2021/03/01 02:27:11;;;;;;;37.38;27.35;;;;;;;3.25;90.56;103519.75;5137268;27;20471;-42
2021/03/01 02:29:38;;;;;;;35.20;26.10;;;;;;;3.20;91.00;103520.13;5137225;27;20019;-42
2021/03/01 02:32:06;;;;;;;35.25;24.23;;;;;;;3.23;91.14;103514.53;5138069;27;20015;-42
2021/03/01 02:34:34;;;;;;;34.08;23.83;;;;;;;3.23;91.29;103516.38;5137620;27;20064;-42
2021/03/01 02:37:06;;;;;;;34.30;24.45;;;;;;;3.22;90.89;103522.66;5138207;27;20019;-42
2021/03/01 02:39:37;;;;;;;32.13;23.52;;;;;;;3.24;90.89;103510.91;5137220;27;20126;-42
2021/03/01 02:42:04;;;;;;;34.70;25.10;;;;;;;3.19;91.47;103521.09;5137315;27;20076;-42
2021/03/01 02:44:30;;;;;;;33.72;24.23;;;;;;;3.22;91.06;103519.97;5136244;27;20038;-42
2021/03/01 02:46:58;;;;;;;37.78;26.02;;;;;;;3.17;90.99;103515.00;5137576;27;20023;-42
2021/03/01 02:49:24;;;;;;;35.63;25.65;;;;;;;3.11;91.36;103510.13;5137922;27;20024;-42
2021/03/01 02:51:50;;;;;;;35.42;24.02;;;;;;;3.07;91.88;103522.00;5137688;27;20019;-42
2021/03/01 02:54:18;;;;;;;35.08;24.15;;;;;;;3.11;91.69;103526.16;5137238;27;20101;-42
2021/03/01 02:56:45;;;;;;;31.48;24.08;;;;;;;3.07;91.66;103528.25;5137072;27;20027;-42
2021/03/01 02:59:11;;;;;;;38.03;27.92;;;;;;;2.97;91.58;103523.66;5137240;27;20030;-42
2021/03/01 03:01:38;;;;;;;36.15;26.58;;;;;;;2.98;91.46;103520.91;5137208;27;20023;-42
2021/03/01 03:04:06;;;;;;;33.58;24.92;;;;;;;3.04;91.91;103522.25;5136876;27;20156;-42
2021/03/01 03:06:34;;;;;;;36.60;25.83;;;;;;;2.95;91.82;103513.09;5137142;27;20039;-42
2021/03/01 03:09:00;;;;;;;38.15;25.30;;;;;;;2.96;91.42;103516.63;5136796;27;20019;-42
2021/03/01 03:11:27;;;;;;;36.78;24.42;;;;;;;2.99;91.74;103513.72;5136821;27;20019;-42
2021/03/01 03:13:54;;;;;;;36.80;25.85;;;;;;;3.02;91.94;103516.16;5136789;27;20054;-42
2021/03/01 03:16:23;;;;;;;34.05;24.27;;;;;;;3.06;92.00;103513.13;5137263;27;20023;-42
2021/03/01 03:18:49;;;;;;;37.67;25.60;;;;;;;3.08;91.60;103518.38;5137106;27;20460;-42
2021/03/01 03:21:14;;;;;;;;;;;;;;;3.09;91.41;103518.25;5136758;27;20023;-42
2021/03/01 03:23:40;;;;;;;33.03;22.95;;;;;;;3.13;90.98;103513.53;5136510;27;19907;-42
2021/03/01 03:26:06;;;;;;;37.23;24.67;;;;;;;3.17;91.33;103514.13;5136256;27;20033;-41
2021/03/01 03:28:31;;;;;;;32.08;22.90;;;;;;;3.21;90.85;103513.78;5136026;27;20183;-41
2021/03/01 03:30:57;;;;;;;33.40;23.73;;;;;;;3.21;90.78;103516.47;5136352;27;20023;-42
2021/03/01 03:33:22;;;;;;;34.40;23.30;;;;;;;3.25;90.91;103509.06;5136233;27;20131;-41
2021/03/01 03:35:48;;;;;;;33.73;23.23;;;;;;;3.24;90.56;103504.69;5135076;27;20012;-41
2021/03/01 03:38:20;;;;;;;40.23;27.23;;;;;;;3.05;91.38;103502.56;5136167;27;20023;-41
2021/03/01 03:40:49;;;;;;;38.35;25.63;;;;;;;3.05;91.67;103507.91;5136747;27;20420;-42
2021/03/01 03:43:15;;;;;;;39.10;26.80;;;;;;;2.99;92.02;103505.72;5135758;27;20057;-41
2021/03/01 03:45:41;;;;;;;;;;;;;;;3.01;92.60;103507.28;5136505;27;20367;-41
2021/03/01 03:48:07;;;;;;;39.78;25.50;;;;;;;2.96;92.92;103505.94;5136211;27;19903;-42
2021/03/01 03:50:34;;;;;;;44.45;27.33;;;;;;;2.90;93.15;103493.91;5136005;27;20071;-41
2021/03/01 03:53:08;;;;;;;;;;;;;;;3.02;92.17;103503.63;5136516;27;20079;-41
2021/03/01 03:55:36;;;;;;;44.47;28.05;;;;;;;2.97;92.87;103504.97;5136419;27;19914;-42
2021/03/01 03:58:05;;;;;;;42.03;27.55;;;;;;;2.98;92.38;103496.00;5135685;27;20026;-41
2021/03/01 04:00:33;;;;;;;36.45;26.13;;;;;;;3.09;92.14;103506.72;5135444;27;20026;-41
2021/03/01 04:03:04;;;;;;;40.40;26.38;;;;;;;3.13;92.54;103502.84;5135987;27;20027;-41
2021/03/01 04:05:31;;;;;;;43.85;27.15;;;;;;;3.07;92.69;103501.50;5135685;27;20023;-41
2021/03/01 04:07:58;;;;;;;38.78;25.55;;;;;;;3.03;92.71;103497.34;5136212;27;20011;-41
2021/03/01 04:10:24;;;;;;;43.17;28.27;;;;;;;3.02;92.68;103489.44;5135544;27;20051;-41
2021/03/01 04:12:53;;;;;;;41.08;26.67;;;;;;;3.07;92.28;103506.84;5135448;27;20054;-41
2021/03/01 04:15:20;;;;;;;43.72;28.75;;;;;;;3.02;92.89;103505.47;5136057;27;20039;-41
2021/03/01 04:17:46;;;;;;;;;;;;;;;3.09;92.59;103501.38;5136171;27;20507;-41
2021/03/01 04:20:14;;;;;;;43.50;26.60;;;;;;;3.11;92.88;103496.75;5135849;27;20224;-41
2021/03/01 04:22:40;;;;;;;43.33;26.83;;;;;;;3.10;92.55;103493.22;5135262;27;20109;-41
2021/03/01 04:25:07;;;;;;;43.70;27.30;;;;;;;3.16;92.44;103497.25;5135786;27;20023;-41
2021/03/01 04:27:37;;;;;;;44.30;28.08;;;;;;;3.14;91.99;103496.53;5135202;27;20019;-41
2021/03/01 04:30:06;;;;;;;44.25;27.42;;;;;;;3.12;92.10;103495.78;5135199;27;20094;-41
2021/03/01 04:32:33;;;;;;;47.70;29.13;;;;;;;2.99;92.62;103487.00;5135100;27;20015;-41
2021/03/01 04:34:58;;;;;;;45.80;27.60;;;;;;;3.07;92.39;103488.13;5135294;27;20030;-41
2021/03/01 04:37:24;;;;;;;41.03;26.07;;;;;;;3.16;92.24;103491.06;5135106;27;20023;-41
2021/03/01 04:39:49;;;;;;;44.03;25.93;;;;;;;3.19;92.37;103483.66;5134734;27;20016;-42
2021/03/01 04:42:15;;;;;;;46.70;29.57;;;;;;;3.14;91.97;103488.50;5135580;27;20045;-42
2021/03/01 04:44:41;;;;;;;48.95;30.00;;;;;;;3.13;92.28;103486.81;5134860;27;20030;-42
2021/03/01 04:47:07;;;;;;;51.75;29.13;;;;;;;3.13;92.37;103493.97;5135249;27;20395;-41
2021/03/01 04:49:33;;;;;;;;;;;;;;;3.07;92.36;103497.94;5135380;27;20107;-42
2021/03/01 04:51:59;;;;;;;50.85;30.38;;;;;;;3.02;92.52;103490.28;5135211;27;19942;-42
2021/03/01 04:54:25;;;;;;;44.35;26.45;;;;;;;3.03;92.92;103485.81;5135060;27;20038;-41
2021/03/01 04:56:51;;;;;;;50.72;29.95;;;;;;;2.90;93.62;103487.69;5134638;27;20042;-41
2021/03/01 04:59:19;;;;;;;51.30;28.60;;;;;;;2.95;93.15;103488.19;5134783;27;20030;-41
2021/03/01 05:01:47;;;;;;;50.28;29.35;;;;;;;2.94;93.50;103490.03;5135571;27;20034;-41
2021/03/01 05:04:13;;;;;;;50.80;27.98;;;;;;;2.96;93.09;103492.56;5135193;27;20033;-41
2021/03/01 05:06:40;;;;;;;46.33;27.23;;;;;;;3.05;93.31;103495.41;5134982;27;20050;-41
2021/03/01 05:09:06;;;;;;;48.53;30.27;;;;;;;2.96;93.65;103495.25;5134310;27;20033;-41
2021/03/01 05:11:36;;;;;;;47.00;28.08;;;;;;;3.04;93.25;103495.53;5134962;27;20027;-41
2021/03/01 05:14:03;;;;;;;44.05;26.67;;;;;;;3.16;93.02;103502.59;5134622;27;20054;-41
2021/03/01 05:16:29;;;;;;;48.83;28.63;;;;;;;3.18;92.61;103506.03;5134581;28;20046;-41
2021/03/01 05:18:56;;;;;;;45.08;26.35;;;;;;;3.18;92.78;103506.03;5134526;28;20023;-41
2021/03/01 05:21:21;;;;;;;46.20;26.75;;;;;;;3.21;92.59;103504.91;5135118;28;20512;-41
2021/03/01 05:23:47;;;;;;;42.80;27.77;;;;;;;3.19;92.54;103509.53;5134503;28;20066;-41
2021/03/01 05:26:15;;;;;;;46.40;28.90;;;;;;;3.14;92.47;103496.53;5134434;27;20019;-41
2021/03/01 05:28:41;;;;;;;48.38;27.88;;;;;;;3.06;92.63;103506.94;5134591;28;20023;-41
2021/03/01 05:31:07;;;;;;;45.55;27.58;;;;;;;3.10;92.53;103503.91;5134461;28;20352;-41
2021/03/01 05:33:33;;;;;;;47.88;28.58;;;;;;;3.05;93.21;103507.91;5134038;28;20019;-41
2021/03/01 05:35:59;;;;;;;44.60;26.48;;;;;;;3.12;92.77;103505.63;5134411;28;20087;-41
2021/03/01 05:38:25;;;;;;;43.55;26.33;;;;;;;3.07;92.58;103511.31;5134382;27;20091;-41
2021/03/01 05:40:50;;;;;;;43.80;25.27;;;;;;;3.00;93.11;103510.94;5135188;28;20022;-41
2021/03/01 05:43:18;;;;;;;50.23;26.77;;;;;;;2.95;92.50;103499.75;5134872;28;20039;-41
2021/03/01 05:45:44;;;;;;;42.35;27.02;;;;;;;2.97;93.29;103502.28;5134848;28;20342;-41
2021/03/01 05:48:11;;;;;;;42.47;25.98;;;;;;;3.00;92.66;103492.22;5134171;28;20020;-41
2021/03/01 05:50:40;;;;;;;44.28;26.70;;;;;;;2.96;92.97;103493.41;5134190;28;20363;-41
2021/03/01 05:53:08;;;;;;;42.75;25.75;;;;;;;3.01;92.81;103499.25;5134893;28;20050;-41
2021/03/01 05:55:34;;;;;;;44.03;27.25;;;;;;;3.01;93.10;103498.41;5135219;27;20019;-41
2021/03/01 05:58:01;;;;;;;41.50;25.30;;;;;;;3.07;92.75;103498.81;5138679;27;20454;-41
2021/03/01 06:00:27;;;;;;;56.83;33.38;;;;;;;2.89;93.18;103500.22;5138684;27;20023;-41
2021/03/01 06:02:55;;;;;;;49.40;28.55;;;;;;;2.94;93.74;103497.19;5138090;27;20015;-41
2021/03/01 06:05:21;;;;;;;44.03;26.63;;;;;;;2.99;93.51;103503.88;5138636;27;20022;-41
2021/03/01 06:07:48;;;;;;;44.00;28.35;;;;;;;3.05;93.25;103494.56;5138561;27;20469;-41
2021/03/01 06:10:13;;;;;;;50.20;29.75;;;;;;;3.04;93.46;103496.38;5138757;27;20348;-41
2021/03/01 06:12:38;;;;;;;58.70;31.60;;;;;;;2.93;93.79;103493.66;5137582;27;20019;-41
2021/03/01 06:15:05;;;;;;;48.63;29.10;;;;;;;3.01;92.94;103493.06;5139024;27;20083;-41
2021/03/01 06:17:30;;;;;;;44.58;27.45;;;;;;;3.08;93.36;103491.66;5137328;27;20023;-41
2021/03/01 06:19:58;;;;;;;44.60;27.67;;;;;;;3.06;92.90;103497.09;5138107;27;20094;-41
2021/03/01 06:22:44;;;;;;;44.88;27.40;;;;;;;3.14;92.52;103501.88;5137632;27;20027;-41
2021/03/01 06:25:14;;;;;;;45.60;28.08;;;;;;;3.11;92.97;103510.13;5137377;27;20042;-41
2021/03/01 06:27:48;;;;;;;47.90;27.75;;;;;;;3.11;93.07;103507.44;5138774;27;20342;-41
2021/03/01 06:30:14;;;;;;;44.22;27.10;;;;;;;3.04;92.93;103509.75;5137486;27;20160;-41
2021/03/01 06:32:40;;;;;;;45.58;27.20;;;;;;;3.05;93.01;103506.09;5137549;27;20114;-41
2021/03/01 06:35:26;;;;;;;46.45;26.80;;;;;;;2.96;93.46;103505.94;5137139;27;20463;-41
2021/03/01 06:38:14;;;;;;;44.55;26.27;;;;;;;2.98;93.08;103512.03;5138199;27;20332;-41
2021/03/01 06:40:40;;;;;;;43.28;26.30;;;;;;;2.98;93.29;103504.03;5137660;27;20019;-41
2021/03/01 06:43:16;;;;;;;43.03;26.38;;;;;;;3.09;92.88;103517.41;5137224;27;20027;-41
2021/03/01 06:45:42;;;;;;;40.58;26.05;;;;;;;3.04;93.28;103506.22;5137813;27;20354;-41
2021/03/01 06:48:08;;;;;;;41.45;24.92;;;;;;;3.08;92.40;103513.03;5136517;27;20015;-42
2021/03/01 06:50:36;;;;;;;40.05;24.65;;;;;;;3.09;92.19;103520.09;5117769;27;20501;-42
2021/03/01 06:53:16;;;;;;;38.42;25.52;;;;;;;3.00;92.32;103521.63;5116125;28;20023;-42
2021/03/01 06:55:55;;;;;;;46.25;27.25;;;;;;;2.90;92.05;103523.28;5117127;28;20019;-42
2021/03/01 06:58:24;;;;;;;44.45;27.08;;;;;;;2.86;92.51;103521.81;5117187;28;20023;-42
2021/03/01 07:00:58;;;;;;;42.08;26.08;;;;;;;2.82;92.43;103525.69;5116711;28;20115;-41
2021/03/01 07:03:24;;;;;;;47.45;27.20;;;;;;;2.73;93.05;103521.91;5116859;28;20112;-41
2021/03/01 07:05:51;;;;;;;43.65;25.90;;;;;;;2.74;92.44;103520.91;5116749;28;20585;-42
2021/03/01 07:08:49;;;;;;;43.30;25.58;;;;;;;2.77;93.20;103533.19;5116319;28;20106;-41
2021/03/01 07:11:36;;;;;;;44.30;26.02;;;;;;;2.76;92.79;103527.00;5116473;28;20072;-41
2021/03/01 07:14:04;;;;;;;42.10;25.58;;;;;;;2.82;92.54;103529.19;5116377;28;20387;-41
2021/03/01 07:16:40;;;;;;;40.25;24.55;;;;;;;2.88;92.64;103535.06;5116147;28;20035;-41
2021/03/01 07:19:08;;;;;;;44.50;26.58;;;;;;;2.78;92.73;103535.75;5116603;28;20050;-42
2021/03/01 07:21:36;;;;;;;43.35;25.27;;;;;;;2.91;92.61;103540.19;5116347;28;20047;-41
2021/03/01 07:24:03;;;;;;;41.88;26.25;;;;;;;2.92;92.21;103541.88;5115874;28;20533;-41
2021/03/01 07:26:29;;;;;;;42.47;26.17;;;;;;;2.90;92.75;103539.34;5115932;28;20404;-41
2021/03/01 07:29:04;;;;;;;42.27;25.83;;;;;;;2.96;92.51;103538.00;5116444;28;20027;-41
2021/03/01 07:31:34;;;;;;;44.83;26.38;;;;;;;2.90;92.28;103539.34;5114869;28;20490;-41
2021/03/01 07:34:04;;;;;;;43.45;25.05;;;;;;;2.93;92.09;103539.13;5115301;28;20027;-42
2021/03/01 07:36:31;;;;;;;41.75;26.42;;;;;;;2.87;92.30;103538.69;5116013;28;20034;-42
2021/03/01 07:39:00;;;;;;;;;;;;;;;2.94;91.77;103539.97;5116106;28;20022;-41
2021/03/01 07:41:27;;;;;;;41.95;22.63;;;;;;;2.93;92.56;103539.13;5116428;28;19939;-42
2021/03/01 07:43:52;;;;;;;;;;;;;;;3.01;92.11;103536.69;5115689;28;20490;-41
2021/03/01 07:46:18;;;;;;;35.35;21.15;;;;;;;3.06;91.62;103533.69;5115855;28;19990;-42
2021/03/01 07:48:43;;;;;;;37.05;22.38;;;;;;;3.06;91.79;103533.69;5116220;28;20440;-42
2021/03/01 07:51:12;;;;;;;39.03;24.03;;;;;;;3.04;91.54;103535.63;5115773;28;20020;-42
2021/03/01 07:53:51;;;;;;;36.95;23.77;;;;;;;3.07;91.60;103535.38;5114967;28;20073;-42
2021/03/01 07:56:22;;;;;;;37.90;23.25;;;;;;;3.03;91.34;103533.94;5115867;28;20027;-41
2021/03/01 07:58:58;;;;;;;38.22;23.50;;;;;;;3.04;91.34;103538.31;5116146;28;20016;-41
2021/03/01 08:01:24;;;;;;;41.20;24.53;;;;;;;2.94;91.72;103546.16;5115572;28;20024;-41
2021/03/01 08:03:49;;;;;;;41.10;24.10;;;;;;;2.97;91.38;103535.22;5115109;28;20035;-41
2021/03/01 08:06:15;;;;;;;41.23;25.50;;;;;;;2.97;91.60;103545.06;5115972;28;20370;-41
2021/03/01 08:08:45;;;;;;;38.77;23.57;;;;;;;3.05;91.90;103548.03;5115643;28;20051;-41
2021/03/01 08:11:12;;;;;;;38.97;23.90;;;;;;;3.07;91.98;103540.72;5115667;28;20116;-41
2021/03/01 08:13:38;;;;;;;39.28;23.95;;;;;;;3.04;91.79;103535.63;5114933;28;20039;-42
2021/03/01 08:16:23;;;;;;;37.58;22.70;;;;;;;3.13;91.97;103539.44;5115248;28;20023;-42
2021/03/01 08:18:53;;;;;;;36.15;21.88;;;;;;;3.20;91.62;103541.50;5114159;28;20496;-42
2021/03/01 08:21:18;;;;;;;35.00;21.77;;;;;;;3.23;90.87;103543.97;5115410;28;20032;-42
2021/03/01 08:23:44;;;;;;;30.83;20.70;;;;;;;3.17;90.54;103543.56;5114871;28;20369;-42
2021/03/01 08:26:10;;;;;;;37.07;22.80;;;;;;;3.04;91.23;103536.47;5114781;28;20023;-42
2021/03/01 08:28:37;;;;;;;36.40;21.60;;;;;;;3.08;91.27;103537.97;5115199;28;20091;-42
2021/03/01 08:31:08;;;;;;;31.95;21.50;;;;;;;3.20;91.54;103541.50;5114938;28;20062;-42
2021/03/01 08:33:34;;;;;;;35.28;22.25;;;;;;;3.18;91.14;103547.97;5114536;28;20359;-42
2021/03/01 08:35:59;;;;;;;38.45;22.88;;;;;;;3.14;91.02;103541.97;5115108;28;20024;-42
2021/03/01 08:38:42;;;;;;;34.40;22.43;;;;;;;3.17;91.43;103541.72;5115048;28;20035;-42
2021/03/01 08:41:09;;;;;;;38.83;22.75;;;;;;;3.15;91.03;103543.69;5114832;28;20379;-42
2021/03/01 08:43:38;;;;;;;35.30;22.48;;;;;;;3.15;91.42;103541.00;5114445;28;20039;-42
2021/03/01 08:46:04;;;;;;;35.15;22.17;;;;;;;3.15;91.25;103540.16;5114551;28;20509;-42
2021/03/01 08:48:30;;;;;;;;;;;;;;;3.12;90.75;103537.69;5114816;28;20027;-42
2021/03/01 08:50:55;;;;;;;29.65;19.52;;;;;;;3.21;90.64;103537.84;5114626;28;19904;-42
2021/03/01 08:53:28;;;;;;;33.23;20.80;;;;;;;3.24;90.65;103545.66;5113935;28;20023;-42
2021/03/01 08:55:56;;;;;;;35.65;23.17;;;;;;;3.11;90.38;103550.22;5114634;28;20041;-42
2021/03/01 08:58:23;;;;;;;37.72;22.90;;;;;;;3.10;91.44;103535.16;5114256;28;20043;-42
2021/03/01 09:00:58;;;;;;;36.55;23.05;;;;;;;3.20;90.75;103543.34;5114565;28;20076;-42
2021/03/01 09:03:25;;;;;;;34.00;21.52;;;;;;;3.37;91.03;103532.22;5113486;28;20020;-42
2021/03/01 09:06:02;;;;;;;33.40;22.35;;;;;;;3.42;90.40;103542.56;5114437;28;20026;-42
2021/03/01 09:08:30;;;;;;;33.50;21.73;;;;;;;3.51;90.70;103536.47;5114395;28;20027;-42
2021/03/01 09:10:58;;;;;;;35.05;21.05;;;;;;;3.62;90.01;103525.81;5114058;28;20020;-42
2021/03/01 09:13:24;;;;;;;59.55;39.88;;;;;;;3.66;89.71;103529.94;5113864;28;20020;-42
2021/03/01 09:15:49;;;;;;;70.30;50.13;;;;;;;3.65;90.00;103530.91;5113861;28;20408;-42
2021/03/01 09:18:15;;;;;;;54.67;37.80;;;;;;;3.60;89.60;103522.38;5113065;28;20165;-42
2021/03/01 09:20:53;;;;;;;39.78;25.02;;;;;;;3.63;89.42;103527.50;5114370;28;20031;-42
2021/03/01 09:23:37;;;;;;;36.47;22.70;;;;;;;3.72;89.64;103528.63;5114575;28;20115;-42
2021/03/01 09:26:05;;;;;;;33.85;22.10;;;;;;;3.74;89.90;103524.81;5113931;28;20032;-42
2021/03/01 09:28:32;;;;;;;34.00;22.58;;;;;;;3.78;89.41;103526.28;5113905;28;20034;-42
2021/03/01 09:31:14;;;;;;;36.67;23.42;;;;;;;3.77;89.76;103523.75;5117498;28;20460;-42
2021/03/01 09:33:41;;;;;;;38.22;22.65;;;;;;;3.65;89.91;103519.34;5118080;28;20022;-42
2021/03/01 09:36:08;;;;;;;31.95;21.70;;;;;;;3.66;89.31;103521.03;5118099;28;20011;-42
2021/03/01 09:38:34;;;;;;;30.15;20.50;;;;;;;3.64;89.33;103521.16;5118037;28;20355;-42
2021/03/01 09:41:03;;;;;;;26.85;17.33;;;;;;;3.59;88.94;103526.03;5118037;28;20031;-42
2021/03/01 09:43:28;;;;;;;28.27;17.58;;;;;;;3.53;89.21;103524.69;5117671;28;20076;-42
2021/03/01 09:45:54;;;;;;;28.07;18.80;;;;;;;3.55;89.35;103528.09;5117923;28;20422;-42
2021/03/01 09:48:20;;;;;;;28.38;19.08;;;;;;;3.55;89.21;103524.56;5117844;28;20027;-42
2021/03/01 09:50:46;;;;;;;29.90;19.03;;;;;;;3.66;89.42;103523.72;5116929;28;20023;-42
2021/03/01 09:53:17;;;;;;;28.05;19.60;;;;;;;3.69;89.27;103526.16;5118188;28;20100;-42
2021/03/01 09:55:44;;;;;;;28.10;18.13;;;;;;;3.69;88.80;103520.81;5117689;28;20042;-42
2021/03/01 09:58:32;;;;;;;26.92;17.63;;;;;;;3.76;89.05;103522.91;5117627;28;20027;-42
2021/03/01 10:01:16;;;;;;;28.05;19.52;;;;;;;3.72;89.42;103515.22;5118439;28;20020;-42
2021/03/01 10:03:46;;;;;;;28.40;18.23;;;;;;;3.79;88.86;103519.97;5118162;28;20027;-42
2021/03/01 10:06:14;;;;;;;27.83;19.85;;;;;;;3.82;89.02;103517.06;5117853;28;20020;-42
2021/03/01 10:08:40;;;;;;;26.30;18.23;;;;;;;3.90;88.89;103511.06;5117685;28;20043;-42
2021/03/01 10:11:22;;;;;;;27.98;18.30;;;;;;;3.94;88.13;103509.03;5117415;28;20024;-42
2021/03/01 10:13:48;;;;;;;28.50;18.58;;;;;;;4.05;88.17;103511.69;5117164;28;20047;-42
2021/03/01 10:16:26;;;;;;;29.35;19.17;;;;;;;4.13;87.91;103510.09;5118180;28;20034;-42
2021/03/01 10:18:52;;;;;;;30.33;19.50;;;;;;;4.13;87.76;103507.41;5117043;28;20407;-42
2021/03/01 10:21:30;;;;;;;30.20;18.58;;;;;;;4.17;87.74;103510.72;5118058;28;20032;-42
2021/03/01 10:24:01;;;;;;;27.95;18.35;;;;;;;4.24;87.66;103511.91;5117466;28;20069;-42
2021/03/01 10:26:27;;;;;;;26.77;18.50;;;;;;;4.24;87.23;103511.06;5117152;28;20409;-42
2021/03/01 10:29:03;;;;;;;27.13;17.90;;;;;;;4.25;86.96;103507.44;5116786;28;20027;-42
2021/03/01 10:31:34;;;;;;;29.42;18.65;;;;;;;4.18;86.84;103509.72;5117356;28;20456;-42
2021/03/01 10:34:10;;;;;;;26.38;18.63;;;;;;;4.16;86.96;103514.38;5116888;28;20497;-42
2021/03/01 10:36:48;;;;;;;29.23;19.98;;;;;;;4.03;87.21;103514.50;5117763;28;20034;-42
2021/03/01 10:39:24;;;;;;;27.38;17.77;;;;;;;4.06;87.54;103511.56;5116569;28;20040;-42
2021/03/01 10:41:54;;;;;;;29.02;19.73;;;;;;;4.11;87.72;103511.22;5116088;28;20027;-42
2021/03/01 10:44:33;;;;;;;25.38;16.58;;;;;;;4.25;87.16;103518.13;5116794;28;20035;-42
2021/03/01 10:47:15;;;;;;;25.52;17.42;;;;;;;4.14;86.83;103514.47;5116496;28;20457;-42
2021/03/01 10:49:41;;;;;;;24.50;16.13;;;;;;;4.16;87.22;103509.00;5117487;28;20398;-42
2021/03/01 10:52:08;;;;;;;26.90;16.92;;;;;;;4.19;86.50;103518.59;5117464;28;20038;-42
2021/03/01 10:54:33;;;;;;;26.83;17.52;;;;;;;4.29;87.20;103514.22;5117063;28;20023;-42
2021/03/01 10:56:58;;;;;;;26.42;17.40;;;;;;;4.35;86.67;103508.38;5115550;28;20042;-42
2021/03/01 10:59:24;;;;;;;25.23;17.93;;;;;;;4.30;86.22;103508.75;5116833;28;20020;-42
2021/03/01 11:01:49;;;;;;;25.37;16.97;;;;;;;4.35;86.44;103513.72;5117004;28;20019;-42
2021/03/01 11:04:16;;;;;;;24.67;16.57;;;;;;;4.42;86.55;103506.03;5116899;28;20059;-42
2021/03/01 11:06:44;;;;;;;25.80;16.50;;;;;;;4.30;86.58;103506.06;5117217;28;20030;-42
2021/03/01 11:09:10;;;;;;;26.08;17.35;;;;;;;4.45;86.34;103513.84;5114700;28;20023;-47
2021/03/01 11:11:37;;;;;;;25.58;17.73;;;;;;;4.34;86.00;103507.53;5117194;28;20026;-42
2021/03/01 11:14:04;;;;;;;28.38;18.75;;;;;;;4.43;86.14;103505.06;5115934;28;20054;-42
2021/03/01 11:16:30;;;;;;;26.17;16.73;;;;;;;4.54;86.31;103505.00;5116186;28;20019;-42
2021/03/01 11:18:56;;;;;;;25.20;17.17;;;;;;;4.69;85.71;103508.28;5116372;28;20065;-42
2021/03/01 11:21:21;;;;;;;22.98;15.20;;;;;;;4.82;84.95;103499.06;5116102;28;20094;-42
2021/03/01 11:23:47;;;;;;;25.92;17.55;;;;;;;4.80;84.96;103497.50;5116326;28;20059;-42